Time;durP1;ratioP1;P1;durP2;ratioP2;P2;SDS_P1;SDS_P2;PMS_P1;PMS_P2;Temp;Humidity;BMP_temperature;BMP_pressure;BME280_temperature;BME280_humidity;BME280_pressure;Samples;Min_cycle;Max_cycle;Signal;HPM_P1;HPM_P2
2021/08/27 00:00:13;;;;;;;3.42;1.85;;;;;;;12.36;80.00;99885.84;1751916;81;21031;-79
2021/08/27 00:02:40;;;;;;;4.90;1.87;;;;;;;12.37;80.05;99883.49;1752411;81;21513;-79
2021/08/27 00:05:08;;;;;;;5.17;2.62;;;;;;;12.39;80.07;99888.63;1751927;81;21783;-79
2021/08/27 00:07:34;;;;;;;5.22;2.60;;;;;;;12.40;80.08;99890.29;1752269;81;20996;-79
2021/08/27 00:10:00;;;;;;;3.45;2.30;;;;;;;12.38;80.10;99896.36;1752237;81;21031;-79
2021/08/27 00:12:26;;;;;;;4.37;1.47;;;;;;;12.38;80.12;99895.84;1752280;81;21032;-79
2021/08/27 00:14:52;;;;;;;3.98;1.40;;;;;;;12.39;80.15;99897.48;1749717;81;20901;-79
2021/08/27 00:17:18;;;;;;;3.10;1.70;;;;;;;12.39;80.16;99898.81;1744926;81;21191;-79
2021/08/27 00:19:44;;;;;;;5.37;1.60;;;;;;;12.38;80.20;99899.03;1745232;82;21024;-79
2021/08/27 00:22:10;;;;;;;3.08;1.37;;;;;;;12.36;80.21;99899.21;1745372;81;21548;-79
2021/08/27 00:24:36;;;;;;;2.00;1.17;;;;;;;12.33;80.22;99896.92;1745297;81;21008;-79
2021/08/27 00:27:03;;;;;;;7.22;1.10;;;;;;;12.32;80.25;99904.63;1745387;81;21670;-80
2021/08/27 00:29:29;;;;;;;3.27;1.40;;;;;;;12.30;80.31;99902.66;1745164;82;21071;-80
2021/08/27 00:31:55;;;;;;;2.80;1.20;;;;;;;12.29;80.34;99901.00;1745188;81;21012;-79
2021/08/27 00:34:21;;;;;;;2.22;1.20;;;;;;;12.27;80.37;99900.38;1745404;81;21525;-79
2021/08/27 00:36:47;;;;;;;2.60;1.00;;;;;;;12.26;80.41;99898.72;1745506;82;21470;-79
2021/08/27 00:39:13;;;;;;;2.42;1.42;;;;;;;12.25;80.44;99899.73;1745239;81;20913;-79
2021/08/27 00:41:39;;;;;;;3.72;1.17;;;;;;;12.21;80.48;99901.13;1745154;82;21122;-79
2021/08/27 00:44:05;;;;;;;6.53;1.42;;;;;;;12.20;80.52;99893.32;1745003;82;21052;-79
2021/08/27 00:46:30;;;;;;;1.57;1.05;;;;;;;12.19;80.58;99897.84;1745247;81;20889;-79
2021/08/27 00:48:56;;;;;;;3.47;1.40;;;;;;;12.20;80.61;99890.65;1744953;82;21055;-79
2021/08/27 00:51:22;;;;;;;2.70;1.70;;;;;;;12.19;80.64;99889.81;1745284;82;20913;-79
2021/08/27 00:53:48;;;;;;;3.58;1.77;;;;;;;12.18;80.67;99890.83;1726077;82;21089;-79
2021/08/27 00:56:14;;;;;;;3.22;1.70;;;;;;;12.20;80.71;99888.80;1745111;81;21087;-79
2021/08/27 00:58:41;;;;;;;3.15;1.30;;;;;;;12.22;80.76;99895.28;1725769;82;21019;-79
2021/08/27 01:01:07;;;;;;;4.20;1.85;;;;;;;12.21;80.79;99895.78;1744929;82;21032;-79
2021/08/27 01:03:33;;;;;;;1.57;1.12;;;;;;;12.18;80.82;99893.50;1745282;82;21019;-79
2021/08/27 01:06:36;;;;;;;4.25;1.57;;;;;;;12.17;80.87;99895.88;1745410;82;21199;-79
2021/08/27 01:09:24;;;;;;;4.65;1.37;;;;;;;12.16;80.93;99896.89;1744858;82;21011;-79
2021/08/27 01:12:08;;;;;;;5.72;2.70;;;;;;;12.18;80.99;99906.03;1744748;81;21250;-79
2021/08/27 01:14:41;;;;;;;4.65;2.75;;;;;;;12.19;80.99;99902.35;1744080;81;21028;-79
2021/08/27 01:17:11;;;;;;;8.93;2.58;;;;;;;12.17;81.04;99905.23;1745097;81;21087;-79
2021/08/27 01:20:13;;;;;;;5.28;2.85;;;;;;;12.16;81.06;99912.92;1745102;82;21124;-80
2021/08/27 01:23:08;;;;;;;4.65;1.30;;;;;;;12.15;81.12;99909.92;1745187;81;21508;-79
2021/08/27 01:25:36;;;;;;;6.03;1.92;;;;;;;12.14;81.17;99910.14;1678396;85;21014;-80
2021/08/27 01:28:02;;;;;;;2.80;1.50;;;;;;;12.11;81.21;99905.98;1706551;82;21111;-79
2021/08/27 01:30:39;;;;;;;7.03;2.02;;;;;;;12.11;81.24;99905.98;1701905;82;21036;-79
2021/08/27 01:33:16;;;;;;;2.10;1.62;;;;;;;12.11;81.31;99905.98;1744064;81;21570;-79
2021/08/27 01:35:46;;;;;;;3.22;1.80;;;;;;;12.13;81.33;99909.30;1745171;81;21043;-79
2021/08/27 01:38:12;;;;;;;5.40;2.47;;;;;;;12.15;81.40;99912.59;1726130;82;21076;-79
2021/08/27 01:40:38;;;;;;;4.45;2.83;;;;;;;12.18;81.46;99909.54;1745144;81;21047;-79
2021/08/27 01:43:07;;;;;;;5.65;2.52;;;;;;;12.19;81.49;99909.87;1745037;82;21023;-79
2021/08/27 01:45:34;;;;;;;3.58;1.80;;;;;;;12.17;81.54;99909.75;1745407;82;21025;-79
2021/08/27 01:48:00;;;;;;;4.00;2.10;;;;;;;12.16;81.58;99906.24;1745021;82;21044;-79
2021/08/27 01:50:26;;;;;;;3.35;2.10;;;;;;;12.15;81.60;99908.59;1745236;82;21020;-79
2021/08/27 01:52:52;;;;;;;4.62;1.98;;;;;;;12.13;81.65;99905.80;1744889;81;21587;-79
2021/08/27 01:55:19;;;;;;;2.83;1.90;;;;;;;12.11;81.67;99905.98;1745147;81;21032;-79
2021/08/27 01:57:45;;;;;;;5.25;2.02;;;;;;;12.14;81.75;99908.80;1725671;82;21361;-79
2021/08/27 02:00:11;;;;;;;2.55;1.90;;;;;;;12.13;81.78;99910.64;1744874;81;21682;-79
2021/08/27 02:02:38;;;;;;;3.98;2.30;;;;;;;12.14;81.84;99905.59;1745225;81;21012;-79
2021/08/27 02:05:05;;;;;;;3.95;2.52;;;;;;;12.14;81.88;99910.94;1744933;81;21068;-79
2021/08/27 02:07:31;;;;;;;7.65;3.85;;;;;;;12.15;81.94;99908.59;1745222;81;21091;-79
2021/08/27 02:09:57;;;;;;;4.75;2.90;;;;;;;12.16;81.97;99912.09;1745142;81;21179;-79
2021/08/27 02:12:23;;;;;;;7.17;3.00;;;;;;;12.17;82.02;99915.92;1744799;81;21036;-79
2021/08/27 02:14:51;;;;;;;3.58;2.58;;;;;;;12.17;82.06;99910.58;1745159;82;21011;-78
2021/08/27 02:17:18;;;;;;;5.75;2.77;;;;;;;12.19;82.11;99915.21;1745091;81;21060;-79
2021/08/27 02:19:44;;;;;;;2.92;2.22;;;;;;;12.19;82.16;99911.20;1745273;82;21135;-79
2021/08/27 02:22:15;;;;;;;3.70;2.20;;;;;;;12.20;82.20;99911.53;1744525;81;21144;-79
2021/08/27 02:24:58;;;;;;;3.58;2.20;;;;;;;12.20;82.24;99908.02;1745105;82;21130;-80
2021/08/27 02:27:24;;;;;;;4.37;1.95;;;;;;;12.22;82.31;99908.14;1745037;82;21024;-80
2021/08/27 02:29:54;;;;;;;2.87;1.92;;;;;;;12.22;82.33;99906.80;1745172;82;21043;-79
2021/08/27 02:32:20;;;;;;;6.15;2.10;;;;;;;12.20;82.36;99912.86;1745327;81;21008;-79
2021/08/27 02:34:46;;;;;;;6.17;1.72;;;;;;;12.17;82.43;99914.59;1745266;81;21155;-79
2021/08/27 02:37:15;;;;;;;2.52;2.12;;;;;;;12.16;82.48;99908.91;1745140;82;21107;-79
2021/08/27 02:39:41;;;;;;;3.72;2.45;;;;;;;12.17;82.52;99907.08;1745029;81;24459;-79
2021/08/27 02:42:08;;;;;;;7.47;2.45;;;;;;;12.17;82.55;99909.75;1745309;81;20984;-79
2021/08/27 02:44:34;;;;;;;2.70;2.17;;;;;;;12.14;82.57;99912.27;1745115;81;21080;-79
2021/08/27 02:47:00;;;;;;;5.00;2.30;;;;;;;12.14;82.60;99913.61;1745028;82;21032;-79
2021/08/27 02:49:26;;;;;;;4.75;2.75;;;;;;;12.12;82.66;99910.31;1745065;81;21004;-79
2021/08/27 02:52:44;;;;;;;8.05;3.47;;;;;;;12.13;82.69;99907.97;1744659;81;21114;-79
2021/08/27 02:55:21;;;;;;;4.15;2.45;;;;;;;12.13;82.71;99903.96;1745237;81;21282;-79
2021/08/27 02:57:56;;;;;;;3.60;2.67;;;;;;;12.13;82.76;99901.28;1726167;82;21035;-80
2021/08/27 03:00:23;;;;;;;2.92;2.42;;;;;;;12.13;82.81;99903.13;1744789;81;21016;-80
2021/08/27 03:02:49;;;;;;;4.72;2.92;;;;;;;12.13;82.84;99904.47;1745279;82;20986;-79
2021/08/27 03:05:22;;;;;;;5.12;3.90;;;;;;;12.11;82.85;99905.14;1744724;81;21563;-79
2021/08/27 03:07:58;;;;;;;7.42;3.20;;;;;;;12.10;82.90;99907.02;1745347;81;21134;-79
2021/08/27 03:10:42;;;;;;;3.58;3.08;;;;;;;12.09;82.93;99900.01;1745201;81;21031;-79
2021/08/27 03:13:10;;;;;;;3.60;2.85;;;;;;;12.09;82.97;99907.20;1744419;81;21588;-79
2021/08/27 03:15:42;;;;;;;3.60;2.12;;;;;;;12.07;82.99;99903.37;1745051;82;21036;-78
2021/08/27 03:18:27;;;;;;;4.37;2.60;;;;;;;12.08;83.03;99900.19;1744474;82;21512;-79
2021/08/27 03:21:04;;;;;;;3.58;2.52;;;;;;;12.10;83.05;99907.02;1745214;82;21024;-79
2021/08/27 03:23:31;;;;;;;4.22;3.05;;;;;;;12.09;83.09;99905.36;1744919;81;21638;-80
2021/08/27 03:25:58;;;;;;;6.65;3.12;;;;;;;12.11;83.12;99912.66;1744929;82;21786;-79
2021/08/27 03:28:26;;;;;;;4.95;2.40;;;;;;;12.14;83.17;99916.28;1745013;81;21063;-80
2021/08/27 03:30:54;;;;;;;6.97;4.47;;;;;;;12.17;83.19;99915.09;1745060;81;21031;-80
2021/08/27 03:33:22;;;;;;;5.78;2.60;;;;;;;12.16;83.20;99914.27;1745171;81;21562;-79
2021/08/27 03:35:51;;;;;;;5.85;1.85;;;;;;;12.17;83.23;99911.92;1745159;81;21013;-80
2021/08/27 03:38:23;;;;;;;3.75;1.90;;;;;;;12.15;83.25;99907.25;1744708;81;21288;-79
2021/08/27 03:40:49;;;;;;;2.85;1.72;;;;;;;12.13;83.29;99906.63;1744859;81;21016;-80
2021/08/27 03:43:15;;;;;;;6.15;2.33;;;;;;;12.15;83.32;99906.42;1745047;81;20913;-79
2021/08/27 03:45:41;;;;;;;3.67;1.62;;;;;;;12.14;83.35;99904.25;1745069;82;21610;-79
2021/08/27 03:48:07;;;;;;;5.20;1.92;;;;;;;12.15;83.36;99904.58;1745106;82;20996;-79
2021/08/27 03:50:33;;;;;;;5.75;2.00;;;;;;;12.14;83.39;99903.45;1745161;81;21680;-79
2021/08/27 03:52:59;;;;;;;4.72;2.80;;;;;;;12.14;83.42;99905.59;1744924;82;21067;-80
2021/08/27 03:55:25;;;;;;;10.53;3.33;;;;;;;12.13;83.43;99902.63;1744981;81;21056;-79
2021/08/27 03:57:51;;;;;;;2.87;2.15;;;;;;;12.14;83.48;99908.27;1745079;82;21008;-79
2021/08/27 04:00:22;;;;;;;3.20;1.80;;;;;;;12.16;83.50;99906.24;1744957;81;21036;-80
2021/08/27 04:02:49;;;;;;;3.33;1.77;;;;;;;12.15;83.50;99900.57;1744823;82;21089;-79
2021/08/27 04:05:17;;;;;;;3.17;1.50;;;;;;;12.13;83.52;99910.64;1745173;81;21508;-79
2021/08/27 04:07:43;;;;;;;2.20;1.70;;;;;;;12.13;83.55;99906.63;1745046;82;21020;-80
2021/08/27 04:10:10;;;;;;;4.85;2.37;;;;;;;12.11;83.56;99907.31;1744942;81;21107;-79
2021/08/27 04:12:39;;;;;;;3.35;2.20;;;;;;;12.10;83.58;99911.53;1745052;82;20969;-79
2021/08/27 04:15:07;;;;;;;3.87;2.30;;;;;;;12.09;83.62;99912.04;1744923;81;22141;-79
2021/08/27 04:17:33;;;;;;;4.22;2.50;;;;;;;12.11;83.64;99919.34;1750722;81;21090;-79
2021/08/27 04:19:59;;;;;;;2.70;2.45;;;;;;;12.13;83.67;99915.98;1752148;81;21067;-79
2021/08/27 04:22:25;;;;;;;5.42;2.72;;;;;;;12.11;83.69;99911.33;1752074;81;21016;-79
2021/08/27 04:24:51;;;;;;;5.25;3.00;;;;;;;12.11;83.71;99905.98;1752548;81;21524;-79
2021/08/27 04:27:17;;;;;;;4.15;2.80;;;;;;;12.10;83.72;99911.03;1752212;81;21791;-79
2021/08/27 04:29:43;;;;;;;4.53;2.90;;;;;;;12.09;83.73;99916.05;1752137;81;21056;-79
2021/08/27 04:32:09;;;;;;;3.87;3.08;;;;;;;12.10;83.76;99920.38;1751970;81;21072;-79
2021/08/27 04:34:35;;;;;;;6.47;3.40;;;;;;;12.06;83.78;99917.77;1752517;81;21067;-79
2021/08/27 04:37:03;;;;;;;4.08;3.33;;;;;;;12.13;83.82;99913.31;1752196;81;21483;-80
2021/08/27 04:39:29;;;;;;;4.60;3.92;;;;;;;12.16;83.85;99919.61;1752342;81;21112;-79
2021/08/27 04:41:55;;;;;;;5.28;3.55;;;;;;;12.18;83.89;99918.89;1752229;81;21047;-79
2021/08/27 04:44:21;;;;;;;4.72;3.35;;;;;;;12.20;83.88;99921.39;1752183;81;21575;-78
2021/08/27 04:46:47;;;;;;;4.67;3.72;;;;;;;12.21;83.90;99923.85;1752278;81;21004;-79
2021/08/27 04:49:13;;;;;;;6.67;3.58;;;;;;;12.23;83.91;99925.84;1751852;81;21031;-79
2021/08/27 04:51:39;;;;;;;5.92;4.00;;;;;;;12.23;83.90;99926.34;1752423;81;21108;-79
2021/08/27 04:54:05;;;;;;;5.35;3.85;;;;;;;12.20;83.92;99922.22;1751846;82;21106;-79
2021/08/27 04:56:31;;;;;;;4.65;3.50;;;;;;;12.22;83.95;99925.52;1751987;81;20920;-79
2021/08/27 04:58:57;;;;;;;7.87;3.47;;;;;;;12.27;83.99;99928.45;1752212;81;21008;-79
2021/08/27 05:01:23;;;;;;;8.53;4.00;;;;;;;12.32;83.97;99924.67;1752199;81;21019;-78
2021/08/27 05:03:49;;;;;;;7.83;5.28;;;;;;;12.33;83.96;99929.02;1752453;81;21103;-79
2021/08/27 05:06:15;;;;;;;8.35;4.58;;;;;;;12.34;83.98;99936.02;1752185;81;21055;-79
2021/08/27 05:08:41;;;;;;;6.40;5.00;;;;;;;12.36;84.01;99931.30;1762091;80;21056;-79
2021/08/27 05:11:07;;;;;;;9.70;5.60;;;;;;;12.42;84.00;99935.86;1750667;82;20993;-79
2021/08/27 05:13:33;;;;;;;7.08;5.28;;;;;;;12.46;83.99;99934.46;1764770;80;21538;-79
2021/08/27 05:15:59;;;;;;;6.72;4.10;;;;;;;12.47;83.99;99928.61;1761678;80;21189;-79
2021/08/27 05:18:28;;;;;;;6.60;4.97;;;;;;;12.46;83.98;99935.80;1775531;80;20964;-78
2021/08/27 05:20:53;;;;;;;4.72;4.28;;;;;;;12.50;84.00;99937.58;1770169;80;21023;-79
2021/08/27 05:23:19;;;;;;;5.60;3.45;;;;;;;12.62;83.98;99943.23;1776491;80;21020;-79
2021/08/27 05:25:45;;;;;;;8.23;3.60;;;;;;;12.65;83.98;99941.50;1776738;80;21051;-79
2021/08/27 05:28:11;;;;;;;4.92;3.40;;;;;;;12.61;83.98;99941.58;1776496;80;21541;-79
2021/08/27 05:30:37;;;;;;;5.55;3.87;;;;;;;12.52;83.94;99947.05;1772502;80;20967;-79
2021/08/27 05:33:03;;;;;;;5.45;4.10;;;;;;;12.49;83.94;99954.64;1762276;80;20916;-79
2021/08/27 05:35:29;;;;;;;4.25;3.58;;;;;;;12.49;83.90;99961.33;1765787;80;21003;-79
2021/08/27 05:37:55;;;;;;;6.58;3.70;;;;;;;12.56;83.88;99957.39;1775971;79;20988;-79
2021/08/27 05:40:21;;;;;;;4.28;2.92;;;;;;;12.62;83.86;99961.96;1764602;80;21472;-79
2021/08/27 05:42:47;;;;;;;4.35;2.83;;;;;;;12.63;83.84;99956.40;1768758;80;21460;-79
2021/08/27 05:45:14;;;;;;;3.42;2.80;;;;;;;12.61;83.79;99961.13;1768194;80;21083;-78
2021/08/27 05:47:41;;;;;;;5.92;3.08;;;;;;;12.61;83.77;99965.65;1783923;80;21095;-79
2021/08/27 05:50:08;;;;;;;3.87;2.72;;;;;;;12.63;83.73;99973.79;1781926;80;21472;-79
2021/08/27 05:52:34;;;;;;;4.17;3.00;;;;;;;12.65;83.73;99972.27;1768794;80;21853;-79
2021/08/27 05:55:00;;;;;;;5.37;2.85;;;;;;;12.68;83.70;99974.55;1778414;80;21012;-79
2021/08/27 05:57:26;;;;;;;2.95;2.55;;;;;;;12.69;83.65;99976.22;1766607;78;21887;-79
2021/08/27 05:59:52;;;;;;;3.22;2.77;;;;;;;12.67;83.64;99976.40;1773752;78;21074;-77
2021/08/27 06:02:19;;;;;;;3.55;3.25;;;;;;;12.69;83.63;99980.23;1809643;78;21510;-77
2021/08/27 06:04:45;;;;;;;4.50;3.05;;;;;;;12.74;83.58;99975.94;1794306;78;21892;-78
2021/08/27 06:07:11;;;;;;;4.25;3.37;;;;;;;12.74;83.53;99981.30;1769530;80;21042;-77
2021/08/27 06:09:37;;;;;;;4.70;3.98;;;;;;;12.72;83.50;99981.18;1765052;80;21102;-77
2021/08/27 06:12:04;;;;;;;8.55;4.80;;;;;;;12.71;83.47;99986.20;1759600;80;21003;-78
2021/08/27 06:14:30;;;;;;;5.60;4.28;;;;;;;12.71;83.44;99985.70;1777654;80;21110;-77
2021/08/27 06:16:56;;;;;;;5.65;4.25;;;;;;;12.72;83.43;99987.36;1756736;80;21000;-78
2021/08/27 06:19:22;;;;;;;4.92;4.42;;;;;;;12.72;83.40;99989.20;1740901;82;20905;-77
2021/08/27 06:21:49;;;;;;;7.08;4.97;;;;;;;12.72;83.38;99991.88;1774895;80;21109;-78
2021/08/27 06:24:15;;;;;;;4.67;3.92;;;;;;;12.72;83.33;99989.20;1764933;80;21071;-71
2021/08/27 06:26:41;;;;;;;6.10;3.30;;;;;;;12.72;83.31;99994.55;1765320;80;21571;-71
2021/08/27 06:29:07;;;;;;;5.17;3.72;;;;;;;12.74;83.34;99992.50;1772127;80;21056;-70
2021/08/27 06:31:33;;;;;;;6.92;3.85;;;;;;;12.78;83.30;99997.78;1763451;80;21015;-71
2021/08/27 06:33:59;;;;;;;4.15;3.70;;;;;;;12.84;83.27;100003.72;1757292;80;20986;-71
2021/08/27 06:36:25;;;;;;;5.03;3.58;;;;;;;12.93;83.26;100000.70;1768173;80;21016;-71
2021/08/27 06:38:51;;;;;;;8.25;3.50;;;;;;;13.03;83.23;100011.89;1769568;80;21515;-78
2021/08/27 06:41:17;;;;;;;9.68;3.17;;;;;;;13.15;83.19;100009.54;1776618;80;21508;-78
2021/08/27 06:43:45;;;;;;;5.87;4.22;;;;;;;13.26;83.17;100009.00;1788563;80;21008;-78
2021/08/27 06:46:15;;;;;;;5.17;4.12;;;;;;;13.40;83.14;100004.55;1764117;80;21028;-78
2021/08/27 06:48:41;;;;;;;7.47;3.20;;;;;;;13.61;83.06;100008.97;1787889;80;21476;-78
2021/08/27 06:51:07;;;;;;;4.55;2.80;;;;;;;13.74;83.02;100001.81;1788726;80;21015;-78
2021/08/27 06:53:34;;;;;;;10.48;3.33;;;;;;;13.83;82.92;100016.69;1788493;80;21929;-78
2021/08/27 06:56:00;;;;;;;4.65;2.77;;;;;;;13.94;82.86;100012.60;1788533;80;21101;-78
2021/08/27 06:58:26;;;;;;;4.50;3.92;;;;;;;14.06;82.80;100008.83;1788491;80;21059;-78
2021/08/27 07:00:52;;;;;;;5.55;3.35;;;;;;;14.22;82.74;100009.28;1788620;80;21004;-78
2021/08/27 07:03:18;;;;;;;5.72;3.20;;;;;;;14.63;82.59;100009.70;1787940;80;21003;-78
2021/08/27 07:05:44;;;;;;;4.47;3.35;;;;;;;14.81;82.39;100012.05;1786501;80;21885;-78
2021/08/27 07:08:10;;;;;;;4.30;3.33;;;;;;;14.67;82.19;100021.14;1766562;78;21511;-78
2021/08/27 07:10:36;;;;;;;3.12;2.80;;;;;;;14.60;82.11;100018.16;1768185;78;21378;-78
2021/08/27 07:13:02;;;;;;;5.80;3.60;;;;;;;14.50;82.00;100015.34;1781933;78;21451;-78
2021/08/27 07:15:28;;;;;;;5.53;3.67;;;;;;;14.40;81.60;100012.24;1771885;78;21001;-78
2021/08/27 07:17:54;;;;;;;5.30;3.60;;;;;;;14.40;81.60;100012.24;1781214;78;21084;-78
2021/08/27 07:20:21;;;;;;;6.80;3.30;;;;;;;14.32;81.60;100011.05;1800085;78;21070;-78
2021/08/27 07:22:47;;;;;;;5.85;3.85;;;;;;;14.26;81.49;100017.75;1739937;78;21078;-78
2021/08/27 07:25:13;;;;;;;7.78;4.30;;;;;;;14.25;81.39;100026.30;1772678;78;21011;-78
2021/08/27 07:27:40;;;;;;;10.20;4.47;;;;;;;14.29;81.32;100027.55;1795529;78;21027;-78
2021/08/27 07:30:08;;;;;;;7.90;3.60;;;;;;;14.35;81.20;100025.45;1799316;78;21135;-78
2021/08/27 07:32:34;;;;;;;5.28;2.92;;;;;;;14.33;81.14;100030.16;1799179;78;20990;-77
2021/08/27 07:35:00;;;;;;;5.22;3.10;;;;;;;14.31;80.96;100030.87;1774770;78;21579;-77
2021/08/27 07:37:26;;;;;;;7.30;3.12;;;;;;;14.31;80.96;100030.87;1788969;78;21441;-78
2021/08/27 07:39:52;;;;;;;4.70;2.80;;;;;;;14.34;80.79;100034.52;1763097;78;21032;-78
2021/08/27 07:42:18;;;;;;;4.97;2.50;;;;;;;14.41;80.73;100034.03;1772937;78;21043;-78
2021/08/27 07:44:44;;;;;;;3.22;2.50;;;;;;;14.49;80.56;100037.84;1809052;78;20998;-76
2021/08/27 07:47:11;;;;;;;3.98;2.92;;;;;;;14.61;80.45;100034.05;1786854;78;21078;-77
2021/08/27 07:49:37;;;;;;;3.98;2.55;;;;;;;15.12;80.60;100028.90;1779346;78;21534;-77
2021/08/27 07:52:03;;;;;;;5.12;2.55;;;;;;;15.12;80.60;100028.90;1775016;78;21000;-77
2021/08/27 07:54:30;;;;;;;3.80;1.85;;;;;;;15.63;80.13;100030.36;1772422;78;21139;-78
2021/08/27 07:56:56;;;;;;;3.77;2.15;;;;;;;16.14;80.03;100031.72;1787671;78;21054;-78
2021/08/27 07:59:22;;;;;;;5.22;2.00;;;;;;;16.43;79.81;100029.77;1795499;78;20986;-77
2021/08/27 08:01:48;;;;;;;1.80;1.40;;;;;;;16.82;79.54;100025.17;1770264;78;21032;-77
2021/08/27 08:04:14;;;;;;;4.40;1.82;;;;;;;16.90;79.21;100026.25;1777032;78;21027;-77
2021/08/27 08:06:41;;;;;;;3.45;1.60;;;;;;;16.87;78.88;100025.34;1781636;78;21618;-78
2021/08/27 08:09:08;;;;;;;1.32;1.22;;;;;;;17.05;78.63;100029.97;1785959;78;21031;-78
2021/08/27 08:11:34;;;;;;;3.15;1.62;;;;;;;17.26;78.37;100027.70;1780834;78;21567;-78
2021/08/27 08:14:00;;;;;;;2.80;1.42;;;;;;;17.31;77.98;100031.88;1765059;78;21075;-78
2021/08/27 08:16:28;;;;;;;4.62;2.58;;;;;;;17.08;77.53;100026.31;1769526;78;20998;-79
2021/08/27 08:18:54;;;;;;;3.10;1.80;;;;;;;16.74;77.20;100028.16;1797562;78;22131;-79
2021/08/27 08:21:23;;;;;;;5.85;1.80;;;;;;;16.40;77.03;100028.86;1789423;78;21529;-78
2021/08/27 08:23:52;;;;;;;2.02;1.72;;;;;;;16.28;76.93;100037.84;1797544;78;21385;-77
2021/08/27 08:26:19;;;;;;;;;;;;;;;16.21;76.80;100035.20;1782976;78;21011;-78
2021/08/27 08:28:50;;;;;;;1.92;1.42;;;;;;;16.15;76.61;100032.55;1784826;78;20141;-77
2021/08/27 08:31:22;;;;;;;2.42;1.35;;;;;;;16.11;76.44;100037.53;1774089;78;21690;-79
2021/08/27 08:33:52;;;;;;;3.67;1.10;;;;;;;15.95;76.17;100036.66;1781564;78;21486;-79
2021/08/27 08:36:19;;;;;;;2.52;1.98;;;;;;;15.97;76.04;100038.62;1777002;78;20996;-77
2021/08/27 08:38:45;;;;;;;3.22;1.87;;;;;;;15.98;75.85;100036.22;1810321;78;21497;-77
2021/08/27 08:41:12;;;;;;;2.95;1.85;;;;;;;16.03;75.74;100042.31;1781458;78;21520;-77
2021/08/27 08:43:38;;;;;;;2.95;2.15;;;;;;;16.11;75.52;100037.53;1777244;78;22128;-77
2021/08/27 08:46:04;;;;;;;14.25;2.70;;;;;;;16.07;75.34;100041.69;1781532;78;21018;-77
2021/08/27 08:48:30;;;;;;;3.20;1.57;;;;;;;16.12;75.09;100049.92;1783719;78;21014;-77
2021/08/27 08:50:56;;;;;;;1.35;0.95;;;;;;;16.15;74.94;100046.80;1790288;78;21048;-77
2021/08/27 08:53:23;;;;;;;1.40;1.00;;;;;;;16.19;74.83;100048.02;1779127;78;21141;-77
2021/08/27 08:55:50;;;;;;;1.15;1.02;;;;;;;16.62;74.80;100041.48;1796355;78;21162;-77
2021/08/27 08:58:18;;;;;;;2.52;0.90;;;;;;;16.91;74.46;100042.73;1778209;78;21094;-77
2021/08/27 09:00:44;;;;;;;1.40;1.05;;;;;;;16.78;74.08;100044.19;1793424;78;21045;-77
2021/08/27 09:03:10;;;;;;;1.20;0.80;;;;;;;16.98;74.07;100036.77;1786232;78;20880;-78
2021/08/27 09:05:42;;;;;;;1.10;1.00;;;;;;;17.20;73.88;100035.33;1789954;78;21039;-78
2021/08/27 09:08:08;;;;;;;1.17;0.93;;;;;;;17.47;73.59;100038.06;1771880;78;22133;-78
2021/08/27 09:10:44;;;;;;;2.62;1.00;;;;;;;17.80;73.21;100030.95;1783464;78;21040;-78
2021/08/27 09:13:10;;;;;;;1.25;0.68;;;;;;;18.23;72.87;100036.22;1775666;78;21101;-78
2021/08/27 09:15:36;;;;;;;1.47;0.65;;;;;;;18.39;72.42;100043.70;1784656;78;21023;-78
2021/08/27 09:18:10;;;;;;;1.77;0.78;;;;;;;18.33;71.87;100033.80;1787175;78;21514;-78
2021/08/27 09:20:36;;;;;;;1.30;1.20;;;;;;;18.07;71.29;100039.56;1808097;78;21178;-78
2021/08/27 09:23:05;;;;;;;1.00;0.75;;;;;;;17.64;70.80;100038.84;1783917;78;20912;-78
2021/08/27 09:25:33;;;;;;;0.68;0.60;;;;;;;17.51;70.47;100040.30;1760664;78;21043;-78
2021/08/27 09:28:17;;;;;;;0.78;0.75;;;;;;;17.27;70.18;100039.31;1802999;78;21099;-78
2021/08/27 09:30:55;;;;;;;2.00;1.35;;;;;;;17.32;70.06;100040.80;1778550;78;21059;-79
2021/08/27 09:33:26;;;;;;;1.87;0.90;;;;;;;17.35;69.84;100037.13;1794376;78;21152;-78
2021/08/27 09:36:05;;;;;;;1.35;1.10;;;;;;;17.32;69.64;100037.58;1762869;78;21059;-78
2021/08/27 09:38:37;;;;;;;2.37;1.40;;;;;;;17.29;69.46;100040.72;1786245;78;21099;-77
2021/08/27 09:41:10;;;;;;;1.85;1.35;;;;;;;17.19;69.26;100041.76;1793542;78;20992;-77
2021/08/27 09:43:42;;;;;;;4.70;1.62;;;;;;;17.03;69.18;100039.60;1775732;78;21011;-76
2021/08/27 09:46:34;;;;;;;7.35;2.45;;;;;;;16.94;69.15;100039.59;1783088;78;21179;-76
2021/08/27 09:49:03;;;;;;;3.72;1.92;;;;;;;16.89;69.10;100043.45;1782778;78;21049;-77
2021/08/27 09:51:42;;;;;;;1.82;1.45;;;;;;;16.83;69.09;100047.03;1796819;78;21002;-77
2021/08/27 09:54:08;;;;;;;15.63;4.65;;;;;;;16.78;69.02;100047.67;1791896;78;21039;-77
2021/08/27 09:56:48;;;;;;;10.53;3.12;;;;;;;16.90;69.02;100046.45;1786260;78;21055;-77
2021/08/27 09:59:14;;;;;;;32.95;4.25;;;;;;;17.23;69.03;100047.02;1784860;78;21074;-77
2021/08/27 10:01:50;;;;;;;2.33;1.40;;;;;;;17.80;68.94;100047.69;1770657;78;21039;-77
2021/08/27 10:04:17;;;;;;;1.45;1.30;;;;;;;18.16;68.70;100039.53;1801165;78;20998;-77
2021/08/27 10:06:43;;;;;;;3.40;1.37;;;;;;;18.35;68.43;100039.81;1760541;78;21074;-77
2021/08/27 10:09:09;;;;;;;2.60;1.72;;;;;;;18.52;68.16;100044.58;1766681;78;21563;-78
2021/08/27 10:11:35;;;;;;;2.05;1.42;;;;;;;18.73;67.86;100041.35;1769316;78;21179;-77
2021/08/27 10:14:01;;;;;;;1.42;1.10;;;;;;;18.79;67.54;100038.54;1771074;78;20911;-78
2021/08/27 10:16:30;;;;;;;3.15;2.05;;;;;;;18.67;67.24;100042.28;1798836;78;21077;-78
2021/08/27 10:18:57;;;;;;;3.33;1.40;;;;;;;18.39;67.02;100043.70;1770742;78;21070;-78
2021/08/27 10:21:24;;;;;;;1.98;1.45;;;;;;;18.22;66.96;100041.34;1804982;78;20998;-78
2021/08/27 10:23:50;;;;;;;1.50;1.32;;;;;;;18.23;66.83;100040.27;1775863;78;21215;-78
2021/08/27 10:26:19;;;;;;;8.23;1.70;;;;;;;18.12;66.56;100036.99;1808821;78;20880;-78
2021/08/27 10:28:45;;;;;;;3.77;1.60;;;;;;;17.98;66.41;100032.81;1783345;78;21019;-77
2021/08/27 10:31:11;;;;;;;2.45;1.42;;;;;;;17.87;66.38;100033.05;1765437;80;21067;-77
2021/08/27 10:33:46;;;;;;;1.67;1.40;;;;;;;17.94;66.33;100035.70;1757209;81;21066;-77
2021/08/27 10:36:26;;;;;;;1.52;1.20;;;;;;;18.03;66.19;100024.88;1757413;81;21851;-77
2021/08/27 10:38:54;;;;;;;1.27;1.17;;;;;;;18.23;65.99;100028.65;1757086;81;21492;-77
2021/08/27 10:41:28;;;;;;;2.35;1.40;;;;;;;18.20;65.67;100031.29;1757163;81;21071;-77
2021/08/27 10:44:05;;;;;;;3.27;1.57;;;;;;;18.16;65.54;100032.79;1757361;80;21445;-77
2021/08/27 10:46:52;;;;;;;2.12;1.02;;;;;;;18.17;65.41;100031.75;1757215;80;21531;-77
2021/08/27 10:49:21;;;;;;;2.05;1.17;;;;;;;18.18;65.20;100024.48;1757567;80;21136;-77
2021/08/27 10:51:50;;;;;;;2.45;1.10;;;;;;;18.07;65.03;100039.56;1757080;81;21012;-77
2021/08/27 10:54:17;;;;;;;2.47;1.30;;;;;;;18.03;64.82;100035.67;1757400;81;21597;-77
2021/08/27 10:56:51;;;;;;;1.65;1.35;;;;;;;18.01;64.67;100031.56;1757333;80;20999;-77
2021/08/27 10:59:20;;;;;;;1.87;1.20;;;;;;;17.96;64.51;100037.63;1757319;81;20999;-77
2021/08/27 11:01:50;;;;;;;1.85;1.22;;;;;;;17.87;64.34;100030.91;1757512;81;21128;-77
2021/08/27 11:04:23;;;;;;;1.62;1.37;;;;;;;17.84;64.28;100032.68;1757473;80;20996;-77
2021/08/27 11:06:58;;;;;;;3.20;1.30;;;;;;;17.85;64.16;100031.64;1757353;80;21079;-77
2021/08/27 11:09:27;;;;;;;2.95;1.20;;;;;;;17.88;64.13;100030.66;1757386;81;21016;-77
2021/08/27 11:12:15;;;;;;;2.33;1.20;;;;;;;17.91;64.09;100032.07;1756160;80;21432;-77
2021/08/27 11:14:46;;;;;;;1.57;1.45;;;;;;;17.93;63.99;100036.73;1757450;81;21099;-77
2021/08/27 11:17:13;;;;;;;2.17;1.20;;;;;;;18.02;63.86;100027.79;1757137;81;21011;-77
2021/08/27 11:19:57;;;;;;;1.10;0.98;;;;;;;17.97;63.72;100028.48;1758065;81;21605;-77
2021/08/27 11:22:29;;;;;;;1.40;1.20;;;;;;;17.91;63.70;100030.72;1757934;81;21471;-77
2021/08/27 11:25:11;;;;;;;3.22;1.30;;;;;;;17.81;63.58;100027.73;1758373;81;21516;-77
2021/08/27 11:27:38;;;;;;;1.40;1.30;;;;;;;17.79;63.50;100023.94;1758387;81;21048;-77
2021/08/27 11:30:31;;;;;;;4.58;3.17;;;;;;;17.78;63.39;100030.37;1758205;81;21000;-77
2021/08/27 11:32:58;;;;;;;3.83;0.98;;;;;;;17.73;63.31;100033.45;1758332;81;21012;-77
2021/08/27 11:35:24;;;;;;;3.55;1.20;;;;;;;17.69;63.21;100026.34;1737573;81;20995;-77